FBU weather

CLOSED Oslo, Fornebu Airport
Oslo, Oslo, Norway

Public forecast

Using degrees Celsius for public forecast. Weather courtesy of forecast.io.

Current aviation weather report (METAR) for Oslo, Fornebu Airport

Retrieved 2020/06/04 00:20 UTC (1 hour ago):

ENFB 040020Z AUTO 36023KT 9999NDV DZ BKN013/// BKN072/// 07/05 Q1004 W///S4

Closest aviation forecast (TAF) to Oslo, Fornebu Airport

Closest forecast is Oslo Gardermoen Airport, 23.0 nm (42.6 km) NE. Retrieved 2020-06-04 00:57 UTC (33 minutes ago):

TAF ENGM 032300Z 0400/0424 12008KT 9999 FEW030 BKN060 TEMPO 0400/0410 SHRA BKN020 SCT030CB PROB30 TEMPO 0400/0408 4000 TSRA